createdAt,value
2023-04-15T00:00:53.945Z,5.42
2023-04-15T00:02:00.382Z,5.47
2023-04-15T00:03:04.527Z,5.42
2023-04-15T00:04:07.727Z,5.47
2023-04-15T00:05:11.206Z,5.44
2023-04-15T00:06:14.790Z,5.40
2023-04-15T00:07:18.235Z,5.36
2023-04-15T00:08:21.195Z,5.40
2023-04-15T00:09:24.429Z,5.42
2023-04-15T00:10:27.850Z,5.48
2023-04-15T00:11:30.856Z,5.49
2023-04-15T00:12:34.001Z,5.49
2023-04-15T00:13:37.134Z,5.45
2023-04-15T00:14:40.339Z,5.41
2023-04-15T00:15:43.493Z,5.37
2023-04-15T00:16:46.768Z,5.32
2023-04-15T00:17:52.360Z,5.17
2023-04-15T00:18:55.340Z,5.18
2023-04-15T00:20:00.386Z,5.15
2023-04-15T00:21:05.328Z,5.20
2023-04-15T00:22:08.496Z,5.08
2023-04-15T00:23:12.099Z,5.03
2023-04-15T00:24:15.264Z,5.06
2023-04-15T00:25:18.358Z,5.08
2023-04-15T00:26:21.373Z,5.03
2023-04-15T00:27:24.535Z,4.93
2023-04-15T00:28:28.272Z,4.96
2023-04-15T00:29:32.283Z,5.04
2023-04-15T00:30:35.798Z,5.00
2023-04-15T00:31:38.885Z,4.90
2023-04-15T00:32:42.619Z,4.86
2023-04-15T00:33:45.805Z,4.90
2023-04-15T00:34:50.344Z,4.90
2023-04-15T00:35:53.950Z,5.01
2023-04-15T00:36:57.017Z,5.07
2023-04-15T00:38:00.183Z,5.05
2023-04-15T00:39:03.556Z,4.94
2023-04-15T00:40:08.158Z,4.89
2023-04-15T00:41:11.751Z,4.92
2023-04-15T00:42:15.507Z,4.94
2023-04-15T00:43:18.832Z,4.98
2023-04-15T00:44:22.015Z,5.01
2023-04-15T00:45:26.000Z,5.07
2023-04-15T00:46:31.479Z,5.15
2023-04-15T00:47:35.838Z,5.20
2023-04-15T00:48:46.176Z,5.25
2023-04-15T00:49:49.182Z,5.24
2023-04-15T00:50:52.240Z,5.21
2023-04-15T00:51:55.231Z,5.27
2023-04-15T00:52:58.227Z,5.18
2023-04-15T00:54:01.664Z,5.29
2023-04-15T00:55:05.685Z,5.26
2023-04-15T00:56:09.044Z,5.27
2023-04-15T00:57:12.056Z,5.24
2023-04-15T00:58:15.790Z,5.23
2023-04-15T00:59:19.152Z,5.37
2023-04-15T01:00:23.035Z,5.35
2023-04-15T01:01:27.596Z,5.38
2023-04-15T01:02:32.951Z,5.32
2023-04-15T01:03:36.635Z,5.37
2023-04-15T01:04:39.799Z,5.43
2023-04-15T01:05:42.679Z,5.49
2023-04-15T01:06:46.126Z,5.46
2023-04-15T01:07:49.241Z,5.47
2023-04-15T01:08:52.169Z,5.44
2023-04-15T01:09:55.923Z,5.37
2023-04-15T01:11:04.063Z,5.43
2023-04-15T01:12:08.785Z,5.48
2023-04-15T01:13:11.781Z,5.43
2023-04-15T01:14:14.786Z,5.49
2023-04-15T01:15:17.677Z,5.52
2023-04-15T01:16:21.011Z,5.57
2023-04-15T01:17:25.779Z,5.56
2023-04-15T01:18:29.698Z,5.64
2023-04-15T01:19:32.792Z,5.68
2023-04-15T01:20:36.664Z,5.71
2023-04-15T01:21:41.220Z,5.64
2023-04-15T01:22:45.501Z,5.61
2023-04-15T01:23:49.277Z,5.65
2023-04-15T01:25:02.497Z,5.68
2023-04-15T01:26:09.199Z,5.61
2023-04-15T01:27:12.337Z,5.57
2023-04-15T01:28:15.378Z,5.70
2023-04-15T01:29:18.957Z,5.71
2023-04-15T01:30:22.019Z,5.78
2023-04-15T01:31:24.838Z,5.75
2023-04-15T01:32:27.846Z,5.73
2023-04-15T01:33:30.910Z,5.75
2023-04-15T01:34:35.734Z,5.80
2023-04-15T01:35:39.213Z,5.74
2023-04-15T01:36:42.268Z,5.79
2023-04-15T01:37:45.677Z,5.88
2023-04-15T01:38:48.960Z,5.79
2023-04-15T01:39:52.631Z,5.83
2023-04-15T01:40:55.736Z,5.86
2023-04-15T01:41:59.005Z,5.96
2023-04-15T01:43:02.898Z,5.94
2023-04-15T01:44:07.434Z,5.96
2023-04-15T01:45:10.949Z,5.99
2023-04-15T01:46:14.097Z,6.06
2023-04-15T01:47:17.926Z,6.04
2023-04-15T01:48:21.476Z,6.05
2023-04-15T01:49:24.503Z,6.02
2023-04-15T01:50:28.601Z,6.08
2023-04-15T01:51:32.300Z,6.05
2023-04-15T01:52:35.291Z,5.99
2023-04-15T01:53:38.369Z,5.96
2023-04-15T01:54:41.384Z,5.96
2023-04-15T01:55:44.557Z,6.03
2023-04-15T01:56:47.841Z,6.04
2023-04-15T01:57:51.198Z,6.07
2023-04-15T01:58:54.347Z,6.14
2023-04-15T01:59:57.362Z,6.07
2023-04-15T02:01:00.862Z,6.03
2023-04-15T02:02:04.776Z,6.19
2023-04-15T02:03:07.971Z,6.12
2023-04-15T02:04:16.945Z,6.00
2023-04-15T02:05:20.065Z,6.02
2023-04-15T02:06:23.085Z,5.99
2023-04-15T02:07:26.588Z,5.95
2023-04-15T02:08:30.048Z,6.07
2023-04-15T02:09:33.350Z,6.09
2023-04-15T02:10:36.357Z,6.05
2023-04-15T02:11:39.489Z,6.13
2023-04-15T02:12:42.843Z,6.12
2023-04-15T02:13:45.812Z,6.09
2023-04-15T02:14:48.879Z,6.17
2023-04-15T02:15:52.966Z,6.25
2023-04-15T02:16:56.888Z,6.27
2023-04-15T02:18:01.392Z,6.30
2023-04-15T02:19:04.735Z,6.30
2023-04-15T02:20:09.128Z,6.19
2023-04-15T02:21:12.087Z,6.16
2023-04-15T02:22:19.028Z,6.13
2023-04-15T02:23:22.180Z,6.24
2023-04-15T02:24:25.171Z,6.27
2023-04-15T02:25:28.186Z,6.16
2023-04-15T02:26:33.349Z,6.09
2023-04-15T02:27:37.169Z,6.09
2023-04-15T02:28:40.372Z,6.04
2023-04-15T02:29:44.533Z,6.12
2023-04-15T02:30:51.463Z,6.08
2023-04-15T02:31:54.627Z,6.16
2023-04-15T02:32:57.531Z,6.26
2023-04-15T02:34:00.731Z,6.23
2023-04-15T02:35:09.144Z,6.15
2023-04-15T02:36:12.727Z,6.19
2023-04-15T02:37:16.403Z,6.13
2023-04-15T02:38:19.385Z,6.12
2023-04-15T02:39:22.387Z,6.19
2023-04-15T02:40:25.452Z,6.18
2023-04-15T02:41:30.320Z,6.21
2023-04-15T02:42:33.374Z,6.19
2023-04-15T02:43:36.759Z,6.11
2023-04-15T02:44:39.978Z,6.07
2023-04-15T02:45:43.892Z,5.99
2023-04-15T02:46:51.300Z,6.00
2023-04-15T02:47:54.816Z,6.09
2023-04-15T02:49:00.354Z,6.02
2023-04-15T02:50:04.557Z,6.13
2023-04-15T02:51:20.132Z,6.07
2023-04-15T02:52:23.009Z,6.06
2023-04-15T02:53:27.233Z,5.95
2023-04-15T02:54:30.220Z,5.92
2023-04-15T02:55:33.395Z,6.07
2023-04-15T02:56:36.327Z,6.10
2023-04-15T02:57:41.045Z,6.05
2023-04-15T02:58:50.940Z,6.04
2023-04-15T02:59:54.098Z,6.05
2023-04-15T03:00:57.036Z,6.02
2023-04-15T03:02:02.699Z,6.04
2023-04-15T03:03:07.007Z,6.06
2023-04-15T03:04:10.429Z,5.98
2023-04-15T03:05:15.143Z,5.97
2023-04-15T03:06:18.196Z,5.91
2023-04-15T03:07:21.401Z,5.87
2023-04-15T03:08:24.467Z,5.96
2023-04-15T03:09:27.681Z,6.03
2023-04-15T03:10:30.727Z,5.99
2023-04-15T03:11:36.025Z,6.02
2023-04-15T03:12:39.766Z,6.04
2023-04-15T03:13:43.559Z,6.00
2023-04-15T03:14:46.393Z,6.05
2023-04-15T03:15:49.368Z,5.96
2023-04-15T03:16:52.538Z,5.91
2023-04-15T03:17:56.738Z,5.85
2023-04-15T03:18:59.873Z,5.82
2023-04-15T03:20:05.587Z,5.87
2023-04-15T03:21:08.451Z,5.99
2023-04-15T03:22:11.775Z,5.89
2023-04-15T03:23:14.843Z,5.86
2023-04-15T03:24:18.237Z,5.80
2023-04-15T03:25:21.882Z,5.87
2023-04-15T03:26:27.374Z,5.94
2023-04-15T03:27:36.238Z,5.88
2023-04-15T03:28:39.655Z,5.79
2023-04-15T03:29:42.631Z,5.71
2023-04-15T03:30:45.927Z,5.78
2023-04-15T03:31:48.994Z,5.92
2023-04-15T03:32:52.033Z,5.88
2023-04-15T03:33:55.092Z,5.78
2023-04-15T03:34:58.014Z,5.72
2023-04-15T03:36:01.198Z,5.86
2023-04-15T03:37:04.182Z,5.81
2023-04-15T03:38:07.364Z,5.85
2023-04-15T03:39:10.547Z,5.86
2023-04-15T03:40:13.644Z,5.82
2023-04-15T03:41:16.533Z,5.88
2023-04-15T03:42:19.549Z,5.90
2023-04-15T03:43:22.709Z,5.76
2023-04-15T03:44:27.171Z,5.72
2023-04-15T03:45:30.246Z,5.81
2023-04-15T03:46:33.571Z,5.84
2023-04-15T03:47:36.891Z,5.79
2023-04-15T03:48:39.887Z,5.90
2023-04-15T03:49:42.740Z,5.82
2023-04-15T03:50:46.376Z,5.81
2023-04-15T03:51:49.523Z,5.76
2023-04-15T03:52:52.436Z,5.77
2023-04-15T03:53:55.388Z,5.88
2023-04-15T03:54:58.366Z,5.82
2023-04-15T03:56:01.951Z,5.87
2023-04-15T03:57:04.944Z,5.96
2023-04-15T03:58:08.053Z,5.93
2023-04-15T03:59:11.715Z,6.03
2023-04-15T04:00:14.793Z,5.99
2023-04-15T04:01:17.712Z,5.93
2023-04-15T04:02:20.726Z,5.90
2023-04-15T04:03:24.095Z,5.93
2023-04-15T04:04:27.292Z,5.99
2023-04-15T04:05:31.047Z,5.84
2023-04-15T04:06:34.212Z,5.81
2023-04-15T04:07:37.270Z,5.85
2023-04-15T04:08:40.251Z,5.78
2023-04-15T04:09:43.232Z,5.75
2023-04-15T04:10:46.276Z,5.78
2023-04-15T04:11:49.112Z,5.74
2023-04-15T04:12:52.257Z,5.72
2023-04-15T04:13:55.292Z,5.77
2023-04-15T04:14:58.302Z,5.84
2023-04-15T04:16:02.148Z,5.77
2023-04-15T04:17:05.400Z,5.78
2023-04-15T04:18:08.543Z,5.83
2023-04-15T04:19:11.586Z,6.00
2023-04-15T04:20:14.466Z,6.02
2023-04-15T04:21:17.577Z,6.12
2023-04-15T04:22:24.381Z,5.99
2023-04-15T04:23:27.336Z,6.00
2023-04-15T04:24:30.301Z,6.01
2023-04-15T04:25:33.397Z,5.98
2023-04-15T04:26:36.741Z,6.06
2023-04-15T04:27:40.098Z,6.01
2023-04-15T04:28:43.499Z,6.05
2023-04-15T04:29:48.125Z,5.97
2023-04-15T04:30:51.376Z,5.93
2023-04-15T04:31:54.444Z,5.93
2023-04-15T04:32:57.805Z,5.96
2023-04-15T04:34:01.311Z,5.93
2023-04-15T04:35:05.153Z,5.94
2023-04-15T04:36:08.363Z,5.97
2023-04-15T04:37:11.705Z,5.99
2023-04-15T04:38:14.656Z,5.99
2023-04-15T04:39:17.750Z,5.96
2023-04-15T04:40:20.973Z,6.00
2023-04-15T04:41:23.982Z,5.95
2023-04-15T04:42:27.299Z,5.92
2023-04-15T04:43:30.228Z,6.08
2023-04-15T04:44:33.460Z,6.05
2023-04-15T04:45:36.599Z,6.01
2023-04-15T04:46:39.570Z,6.07
2023-04-15T04:47:42.791Z,6.15
2023-04-15T04:48:47.159Z,6.18
2023-04-15T04:49:50.250Z,6.11
2023-04-15T04:50:53.556Z,6.07
2023-04-15T04:51:57.797Z,6.20
2023-04-15T04:53:01.764Z,6.29
2023-04-15T04:54:04.733Z,6.22
2023-04-15T04:55:08.878Z,6.25
2023-04-15T04:56:11.867Z,6.19
2023-04-15T04:57:14.769Z,6.22
2023-04-15T04:58:17.807Z,6.19
2023-04-15T04:59:20.845Z,6.23
2023-04-15T05:00:23.842Z,6.26
2023-04-15T05:01:27.811Z,6.17
2023-04-15T05:02:31.318Z,6.16
2023-04-15T05:03:34.647Z,6.13
2023-04-15T05:04:37.666Z,6.16
2023-04-15T05:05:41.368Z,6.16
2023-04-15T05:06:44.261Z,6.23
2023-04-15T05:07:47.584Z,6.23
2023-04-15T05:08:50.710Z,6.22
2023-04-15T05:09:54.026Z,6.20
2023-04-15T05:10:57.004Z,6.37
2023-04-15T05:12:00.152Z,6.57
2023-04-15T05:13:03.160Z,6.64
2023-04-15T05:14:06.324Z,6.51
2023-04-15T05:15:09.673Z,6.42
2023-04-15T05:16:12.638Z,6.41
2023-04-15T05:17:15.557Z,6.43
2023-04-15T05:18:18.528Z,6.40
2023-04-15T05:19:21.624Z,6.31
2023-04-15T05:20:24.821Z,6.32
2023-04-15T05:21:28.011Z,6.34
2023-04-15T05:22:31.268Z,6.44
2023-04-15T05:23:34.392Z,6.44
2023-04-15T05:24:37.545Z,6.42
2023-04-15T05:25:40.834Z,6.58
2023-04-15T05:26:43.995Z,6.60
2023-04-15T05:27:47.032Z,6.58
2023-04-15T05:28:50.076Z,6.59
2023-04-15T05:29:53.078Z,6.59
2023-04-15T05:30:56.548Z,6.62
2023-04-15T05:31:59.614Z,6.69
2023-04-15T05:33:02.755Z,6.74
2023-04-15T05:34:05.773Z,6.69
2023-04-15T05:35:08.883Z,6.59
2023-04-15T05:36:12.373Z,6.55
2023-04-15T05:37:15.846Z,6.56
2023-04-15T05:38:19.023Z,6.58
2023-04-15T05:39:22.271Z,6.62
2023-04-15T05:40:25.350Z,6.61
2023-04-15T05:41:28.206Z,6.60
2023-04-15T05:42:31.199Z,6.58
2023-04-15T05:43:34.096Z,6.58
2023-04-15T05:44:37.119Z,6.60
2023-04-15T05:45:40.137Z,6.71
2023-04-15T05:46:43.670Z,6.64
2023-04-15T05:47:47.171Z,6.67
2023-04-15T05:48:50.520Z,6.72
2023-04-15T05:49:53.606Z,6.75
2023-04-15T05:50:56.857Z,6.79
2023-04-15T05:51:59.853Z,6.78
2023-04-15T05:53:02.857Z,6.66
2023-04-15T05:54:06.076Z,6.61
2023-04-15T05:55:09.725Z,6.60
2023-04-15T05:56:12.919Z,6.57
2023-04-15T05:57:15.922Z,6.58
2023-04-15T05:58:19.046Z,6.62
2023-04-15T05:59:22.145Z,6.81
2023-04-15T06:00:25.386Z,6.79
2023-04-15T06:01:28.464Z,6.74
2023-04-15T06:02:31.835Z,6.70
2023-04-15T06:03:35.072Z,6.73
2023-04-15T06:04:38.224Z,6.75
2023-04-15T06:05:41.437Z,6.78
2023-04-15T06:06:45.081Z,6.85
2023-04-15T06:07:48.713Z,6.92
2023-04-15T06:08:51.835Z,6.94
2023-04-15T06:09:55.012Z,7.01
2023-04-15T06:10:59.729Z,7.03
2023-04-15T06:12:03.308Z,7.06
2023-04-15T06:13:07.245Z,7.08
2023-04-15T06:14:10.124Z,7.10
2023-04-15T06:15:13.168Z,7.19
2023-04-15T06:16:16.712Z,7.25
2023-04-15T06:17:20.083Z,7.30
2023-04-15T06:18:23.040Z,7.39
2023-04-15T06:19:26.482Z,7.51
2023-04-15T06:20:29.836Z,7.54
2023-04-15T06:21:33.240Z,7.59
2023-04-15T06:22:38.218Z,7.59
2023-04-15T06:23:44.051Z,7.62
2023-04-15T06:24:47.173Z,7.63
2023-04-15T06:25:50.078Z,7.63
2023-04-15T06:26:53.345Z,7.67
2023-04-15T06:27:56.467Z,7.75
2023-04-15T06:28:59.730Z,7.66
2023-04-15T06:30:03.023Z,7.68
2023-04-15T06:31:06.931Z,7.79
2023-04-15T06:32:10.252Z,7.74
2023-04-15T06:33:13.714Z,7.73
2023-04-15T06:34:16.685Z,7.70
2023-04-15T06:35:19.760Z,7.70
2023-04-15T06:36:22.722Z,7.72
2023-04-15T06:37:25.759Z,7.77
2023-04-15T06:38:28.930Z,7.80
2023-04-15T06:39:32.545Z,7.83
2023-04-15T06:40:35.748Z,7.77
2023-04-15T06:41:38.750Z,7.79
2023-04-15T06:42:42.242Z,7.82
2023-04-15T06:43:45.382Z,7.85
2023-04-15T06:44:48.313Z,7.95
2023-04-15T06:45:51.252Z,8.04
2023-04-15T06:46:54.190Z,8.05
2023-04-15T06:47:57.600Z,8.09
2023-04-15T06:49:01.113Z,8.09
2023-04-15T06:50:04.788Z,8.09
2023-04-15T06:51:07.965Z,8.17
2023-04-15T06:52:11.600Z,8.22
2023-04-15T06:53:15.302Z,8.26
2023-04-15T06:54:18.462Z,8.25
2023-04-15T06:55:21.781Z,8.22
2023-04-15T06:56:24.762Z,8.23
2023-04-15T06:57:28.991Z,8.27
2023-04-15T06:58:31.993Z,8.38
2023-04-15T06:59:35.777Z,8.35
2023-04-15T07:00:39.494Z,8.37
2023-04-15T07:01:42.509Z,8.38
2023-04-15T07:02:45.728Z,8.46
2023-04-15T07:03:48.922Z,8.42
2023-04-15T07:04:52.960Z,8.38
2023-04-15T07:05:55.921Z,8.43
2023-04-15T07:06:58.872Z,8.41
2023-04-15T07:08:02.202Z,8.39
2023-04-15T07:09:05.754Z,8.43
2023-04-15T07:10:09.472Z,8.59
2023-04-15T07:11:12.659Z,8.60
2023-04-15T07:12:15.791Z,8.52
2023-04-15T07:13:18.934Z,8.49
2023-04-15T07:14:22.380Z,8.48
2023-04-15T07:15:25.382Z,8.64
2023-04-15T07:16:29.888Z,8.62
2023-04-15T07:17:33.632Z,8.76
2023-04-15T07:18:36.965Z,8.71
2023-04-15T07:19:40.338Z,8.66
2023-04-15T07:20:43.897Z,8.67
2023-04-15T07:21:47.878Z,8.66
2023-04-15T07:22:51.351Z,8.65
2023-04-15T07:23:54.574Z,8.68
2023-04-15T07:24:57.854Z,8.80
2023-04-15T07:26:01.740Z,8.84
2023-04-15T07:27:04.880Z,8.90
2023-04-15T07:28:07.892Z,8.96
2023-04-15T07:29:11.102Z,8.98
2023-04-15T07:30:14.725Z,9.01
2023-04-15T07:31:18.056Z,9.12
2023-04-15T07:32:21.166Z,9.10
2023-04-15T07:33:24.574Z,9.12
2023-04-15T07:34:30.736Z,9.26
2023-04-15T07:35:34.613Z,9.45
2023-04-15T07:36:37.751Z,9.55
2023-04-15T07:37:40.704Z,9.70
2023-04-15T07:38:43.624Z,9.83
2023-04-15T07:40:08.006Z,9.91
2023-04-15T07:41:14.124Z,9.91
2023-04-15T07:42:17.475Z,9.85
2023-04-15T07:43:21.938Z,9.78
2023-04-15T07:44:27.020Z,9.71
2023-04-15T07:45:30.077Z,9.67
2023-04-15T07:46:33.490Z,9.65
2023-04-15T07:47:36.966Z,9.69
2023-04-15T07:48:39.953Z,9.77
2023-04-15T07:49:43.759Z,9.81
2023-04-15T07:50:46.981Z,9.82
2023-04-15T07:51:50.318Z,9.89
2023-04-15T07:52:53.373Z,9.90
2023-04-15T07:53:56.644Z,9.88
2023-04-15T07:54:59.660Z,9.88
2023-04-15T07:56:02.605Z,9.84
2023-04-15T07:57:05.613Z,9.90
2023-04-15T07:58:08.696Z,9.82
2023-04-15T07:59:11.873Z,9.77
2023-04-15T08:00:16.576Z,9.78
2023-04-15T08:01:19.609Z,9.78
2023-04-15T08:02:23.188Z,9.76
2023-04-15T08:03:26.493Z,9.75
2023-04-15T08:04:29.827Z,9.71
2023-04-15T08:05:33.457Z,9.72
2023-04-15T08:06:36.974Z,9.74
2023-04-15T08:07:40.297Z,9.79
2023-04-15T08:08:43.422Z,9.78
2023-04-15T08:09:47.236Z,9.87
2023-04-15T08:10:52.371Z,9.83
2023-04-15T08:11:56.828Z,9.77
2023-04-15T08:12:59.909Z,9.74
2023-04-15T08:14:05.199Z,9.71
2023-04-15T08:15:08.642Z,9.79
2023-04-15T08:16:23.774Z,9.86
2023-04-15T08:17:27.270Z,9.88
2023-04-15T08:18:30.603Z,9.89
2023-04-15T08:19:33.661Z,9.87
2023-04-15T08:20:37.332Z,9.85
2023-04-15T08:21:41.323Z,9.87
2023-04-15T08:22:44.269Z,9.87
2023-04-15T08:23:49.760Z,9.86
2023-04-15T08:24:52.784Z,9.83
2023-04-15T08:25:55.800Z,9.73
2023-04-15T08:27:00.174Z,9.69
2023-04-15T08:28:07.685Z,9.64
2023-04-15T08:29:10.745Z,9.56
2023-04-15T08:30:14.296Z,9.52
2023-04-15T08:31:18.678Z,9.46
2023-04-15T08:32:21.746Z,9.39
2023-04-15T08:33:24.675Z,9.39
2023-04-15T08:34:28.064Z,9.40
2023-04-15T08:35:31.942Z,9.37
2023-04-15T08:36:35.291Z,9.39
2023-04-15T08:37:38.452Z,9.46
2023-04-15T08:38:42.104Z,9.44
2023-04-15T08:39:46.434Z,9.56
2023-04-15T08:40:49.860Z,9.67
2023-04-15T08:42:02.068Z,9.78
2023-04-15T08:43:08.428Z,9.95
2023-04-15T08:44:11.706Z,10.01
2023-04-15T08:45:15.349Z,10.10
2023-04-15T08:46:18.785Z,10.20
2023-04-15T08:47:24.522Z,10.24
2023-04-15T08:48:32.884Z,10.28
2023-04-15T08:49:41.659Z,10.39
2023-04-15T08:50:45.686Z,10.47
2023-04-15T08:51:49.926Z,10.55
2023-04-15T08:52:56.192Z,10.71
2023-04-15T08:54:00.075Z,10.76
2023-04-15T08:55:03.925Z,10.78
2023-04-15T08:56:10.432Z,10.83
2023-04-15T08:57:14.508Z,10.89
2023-04-15T08:58:19.932Z,10.88
2023-04-15T08:59:22.989Z,10.83
2023-04-15T09:00:27.315Z,10.76
2023-04-15T09:01:30.468Z,10.66
2023-04-15T09:02:33.940Z,10.61
2023-04-15T09:03:37.819Z,10.54
2023-04-15T09:04:40.945Z,10.46
2023-04-15T09:05:44.735Z,10.37
2023-04-15T09:06:47.840Z,10.31
2023-04-15T09:07:53.789Z,10.28
2023-04-15T09:08:57.902Z,10.26
2023-04-15T09:10:01.933Z,10.30
2023-04-15T09:11:05.190Z,10.25
2023-04-15T09:12:09.180Z,10.25
2023-04-15T09:13:12.648Z,10.32
2023-04-15T09:14:15.540Z,10.33
2023-04-15T09:15:19.187Z,10.38
2023-04-15T09:16:22.325Z,10.31
2023-04-15T09:17:26.850Z,10.34
2023-04-15T09:18:35.858Z,10.40
2023-04-15T09:19:38.840Z,10.40
2023-04-15T09:20:43.004Z,10.37
2023-04-15T09:21:48.216Z,10.38
2023-04-15T09:22:52.652Z,10.42
2023-04-15T09:24:01.138Z,10.43
2023-04-15T09:25:04.999Z,10.55
2023-04-15T09:26:08.636Z,10.60
2023-04-15T09:27:11.865Z,10.67
2023-04-15T09:28:15.081Z,10.78
2023-04-15T09:29:18.928Z,10.89
2023-04-15T09:30:22.078Z,10.98
2023-04-15T09:31:31.602Z,11.00
2023-04-15T09:32:35.126Z,11.12
2023-04-15T09:33:59.164Z,11.13
2023-04-15T09:35:12.842Z,11.18
2023-04-15T09:36:15.875Z,11.14
2023-04-15T09:37:31.523Z,11.10
2023-04-15T09:38:36.400Z,11.16
2023-04-15T09:39:52.425Z,10.95
2023-04-15T09:40:55.751Z,10.84
2023-04-15T09:42:07.754Z,10.80
2023-04-15T09:43:14.659Z,10.69
2023-04-15T09:44:27.684Z,10.53
2023-04-15T09:45:31.467Z,10.55
2023-04-15T09:46:44.563Z,10.56
2023-04-15T09:47:48.056Z,10.61
2023-04-15T09:49:09.012Z,10.61
2023-04-15T09:50:12.885Z,10.56
2023-04-15T09:51:16.426Z,10.60
2023-04-15T09:52:19.374Z,10.69
2023-04-15T09:53:23.649Z,10.76
2023-04-15T09:54:34.817Z,10.79
2023-04-15T09:55:37.948Z,10.87
2023-04-15T09:56:43.700Z,10.92
2023-04-15T09:57:47.680Z,11.00
2023-04-15T09:58:57.609Z,11.02
2023-04-15T10:00:00.747Z,10.97
2023-04-15T10:01:05.397Z,10.95
2023-04-15T10:02:08.734Z,10.94
2023-04-15T10:03:12.877Z,10.84
2023-04-15T10:04:16.744Z,10.76
2023-04-15T10:05:20.113Z,10.70
2023-04-15T10:06:24.320Z,10.69
2023-04-15T10:07:27.753Z,10.72
2023-04-15T10:08:33.345Z,10.67
2023-04-15T10:09:39.872Z,10.75
2023-04-15T10:10:42.989Z,10.74
2023-04-15T10:11:49.855Z,10.68
2023-04-15T10:12:54.919Z,10.68
2023-04-15T10:13:58.819Z,10.67
2023-04-15T10:15:06.218Z,10.70
2023-04-15T10:16:17.071Z,10.73
2023-04-15T10:17:22.905Z,10.79
2023-04-15T10:18:28.259Z,10.89
2023-04-15T10:19:33.843Z,10.95
2023-04-15T10:20:39.263Z,11.04
2023-04-15T10:21:42.754Z,11.06
2023-04-15T10:22:47.191Z,11.14
2023-04-15T10:23:51.041Z,11.15
2023-04-15T10:24:54.907Z,11.06
2023-04-15T10:25:59.262Z,11.01
2023-04-15T10:27:05.661Z,11.02
2023-04-15T10:28:09.891Z,11.05
2023-04-15T10:29:14.386Z,10.99
2023-04-15T10:30:17.952Z,10.93
2023-04-15T10:31:22.037Z,10.88
2023-04-15T10:32:26.795Z,10.80
2023-04-15T10:33:30.932Z,10.77
2023-04-15T10:34:34.419Z,10.71
2023-04-15T10:35:38.120Z,10.67
2023-04-15T10:36:41.250Z,10.59
2023-04-15T10:37:44.435Z,10.50
2023-04-15T10:38:47.708Z,10.41
2023-04-15T10:39:51.420Z,10.28
2023-04-15T10:40:54.489Z,10.18
2023-04-15T10:42:17.756Z,10.08
2023-04-15T10:43:28.774Z,10.10
2023-04-15T10:44:31.960Z,10.02
2023-04-15T10:45:37.181Z,9.96
2023-04-15T10:46:45.422Z,9.98
2023-04-15T10:47:55.420Z,9.93
2023-04-15T10:48:58.679Z,9.90
2023-04-15T10:50:02.798Z,9.98
2023-04-15T10:51:06.004Z,9.94
2023-04-15T10:52:09.182Z,10.01
2023-04-15T10:53:12.429Z,10.01
2023-04-15T10:54:17.892Z,10.00
2023-04-15T10:55:32.615Z,10.00
2023-04-15T10:56:35.689Z,10.02
2023-04-15T10:57:40.666Z,10.04
2023-04-15T10:58:44.427Z,10.01
2023-04-15T10:59:59.545Z,9.99
2023-04-15T11:01:04.791Z,10.05
2023-04-15T11:02:08.447Z,10.04
2023-04-15T11:03:12.489Z,10.04
2023-04-15T11:04:15.717Z,10.05
2023-04-15T11:05:21.014Z,9.99
2023-04-15T11:06:45.420Z,10.00
2023-04-15T11:07:51.206Z,9.96
2023-04-15T11:09:06.313Z,9.93
2023-04-15T11:10:18.735Z,9.94
2023-04-15T11:11:21.907Z,9.98
2023-04-15T11:12:36.006Z,10.01
2023-04-15T11:13:48.819Z,10.00
2023-04-15T11:14:51.848Z,9.97
2023-04-15T11:15:58.675Z,9.90
2023-04-15T11:17:01.942Z,9.93
2023-04-15T11:18:21.255Z,9.95
2023-04-15T11:19:24.205Z,10.03
2023-04-15T11:20:27.548Z,10.13
2023-04-15T11:21:30.954Z,10.17
2023-04-15T11:22:34.313Z,10.26
2023-04-15T11:23:47.060Z,10.26
2023-04-15T11:24:50.866Z,10.31
2023-04-15T11:25:56.696Z,10.36
2023-04-15T11:27:00.158Z,10.41
2023-04-15T11:28:03.996Z,10.37
2023-04-15T11:29:07.212Z,10.43
2023-04-15T11:30:24.493Z,10.38
2023-04-15T11:31:28.924Z,10.41
2023-04-15T11:32:32.353Z,10.48
2023-04-15T11:33:35.446Z,10.40
2023-04-15T11:34:38.558Z,10.45
2023-04-15T11:35:42.619Z,10.47
2023-04-15T11:36:45.706Z,10.54
2023-04-15T11:37:52.837Z,10.56
2023-04-15T11:38:59.358Z,10.62
2023-04-15T11:40:03.888Z,10.66
2023-04-15T11:41:07.087Z,10.70
2023-04-15T11:42:22.567Z,10.65
2023-04-15T11:43:25.616Z,10.63
2023-04-15T11:44:28.507Z,10.66
2023-04-15T11:45:31.859Z,10.77
2023-04-15T11:46:34.994Z,10.72
2023-04-15T11:47:39.308Z,10.71
2023-04-15T11:48:45.108Z,10.71
2023-04-15T11:49:50.805Z,10.69
2023-04-15T11:50:59.472Z,10.55
2023-04-15T11:52:02.649Z,10.56
2023-04-15T11:53:08.567Z,10.51
2023-04-15T11:54:19.737Z,10.41
2023-04-15T11:55:24.438Z,10.31
2023-04-15T11:56:27.871Z,10.27
2023-04-15T11:57:36.011Z,10.28
2023-04-15T11:58:39.888Z,10.27
2023-04-15T11:59:45.859Z,10.25
2023-04-15T12:00:59.076Z,10.22
2023-04-15T12:02:13.715Z,10.25
2023-04-15T12:03:22.996Z,10.23
2023-04-15T12:04:26.555Z,10.20
2023-04-15T12:05:29.617Z,10.21
2023-04-15T12:06:39.144Z,10.28
2023-04-15T12:08:01.364Z,10.37
2023-04-15T12:09:14.225Z,10.42
2023-04-15T12:10:18.180Z,10.53
2023-04-15T12:11:31.529Z,10.54
2023-04-15T12:12:34.647Z,10.54
2023-04-15T12:13:37.517Z,10.51
2023-04-15T12:14:40.675Z,10.51
2023-04-15T12:15:44.020Z,10.58
2023-04-15T12:16:54.153Z,10.66
2023-04-15T12:17:57.287Z,10.75
2023-04-15T12:19:01.053Z,10.87
2023-04-15T12:20:04.447Z,10.83
2023-04-15T12:21:11.330Z,10.82
2023-04-15T12:22:16.276Z,10.88
2023-04-15T12:23:22.383Z,10.87
2023-04-15T12:24:25.214Z,10.87
2023-04-15T12:25:40.177Z,10.84
2023-04-15T12:26:49.110Z,10.76
2023-04-15T12:27:53.705Z,10.70
2023-04-15T12:29:01.826Z,10.60
2023-04-15T12:30:06.368Z,10.62
2023-04-15T12:31:11.372Z,10.55
2023-04-15T12:32:16.897Z,10.50
2023-04-15T12:33:20.014Z,10.47
2023-04-15T12:34:36.743Z,10.54
2023-04-15T12:35:39.709Z,10.66
2023-04-15T12:36:43.800Z,10.72
2023-04-15T12:37:46.796Z,10.83
2023-04-15T12:38:49.842Z,10.91
2023-04-15T12:39:54.270Z,10.97
2023-04-15T12:40:57.275Z,11.05
2023-04-15T12:42:00.707Z,11.07
2023-04-15T12:43:03.752Z,11.04
2023-04-15T12:44:06.859Z,11.02
2023-04-15T12:45:09.939Z,11.01
2023-04-15T12:46:13.795Z,11.07
2023-04-15T12:47:18.264Z,11.19
2023-04-15T12:48:21.592Z,11.30
2023-04-15T12:49:25.256Z,11.44
2023-04-15T12:50:28.332Z,11.55
2023-04-15T12:51:32.253Z,11.65
2023-04-15T12:52:35.089Z,11.71
2023-04-15T12:53:38.201Z,11.78
2023-04-15T12:54:41.122Z,11.84
2023-04-15T12:55:44.253Z,11.83
2023-04-15T12:56:49.273Z,11.73
2023-04-15T12:57:54.274Z,11.58
2023-04-15T12:58:57.679Z,11.52
2023-04-15T13:00:01.020Z,11.49
2023-04-15T13:01:04.039Z,11.40
2023-04-15T13:02:08.405Z,11.47
2023-04-15T13:03:11.736Z,11.35
2023-04-15T13:04:17.653Z,11.31
2023-04-15T13:05:21.030Z,11.27
2023-04-15T13:06:25.187Z,11.30
2023-04-15T13:07:28.438Z,11.30
2023-04-15T13:08:31.997Z,11.26
2023-04-15T13:09:38.098Z,11.26
2023-04-15T13:10:42.728Z,11.29
2023-04-15T13:11:45.693Z,11.20
2023-04-15T13:12:53.921Z,11.18
2023-04-15T13:14:00.916Z,11.07
2023-04-15T13:15:05.737Z,11.09
2023-04-15T13:16:10.086Z,11.12
2023-04-15T13:17:13.390Z,11.19
2023-04-15T13:18:16.409Z,11.20
2023-04-15T13:19:19.555Z,11.15
2023-04-15T13:20:22.571Z,11.06
2023-04-15T13:21:25.734Z,11.06
2023-04-15T13:22:28.796Z,11.10
2023-04-15T13:23:32.128Z,11.05
2023-04-15T13:24:35.111Z,11.06
2023-04-15T13:25:38.316Z,11.12
2023-04-15T13:26:41.259Z,11.10
2023-04-15T13:27:44.720Z,11.05
2023-04-15T13:28:47.878Z,10.97
2023-04-15T13:29:50.861Z,10.94
2023-04-15T13:30:54.095Z,10.87
2023-04-15T13:31:57.271Z,10.84
2023-04-15T13:33:00.427Z,10.79
2023-04-15T13:34:03.897Z,10.79
2023-04-15T13:35:07.141Z,10.72
2023-04-15T13:36:10.178Z,10.69
2023-04-15T13:37:13.161Z,10.63
2023-04-15T13:38:19.017Z,10.61
2023-04-15T13:39:22.152Z,10.57
2023-04-15T13:40:25.653Z,10.52
2023-04-15T13:41:30.341Z,10.54
2023-04-15T13:42:33.756Z,10.62
2023-04-15T13:43:36.873Z,10.63
2023-04-15T13:44:39.934Z,10.62
2023-04-15T13:45:42.856Z,10.69
2023-04-15T13:46:46.538Z,10.72
2023-04-15T13:47:49.545Z,10.75
2023-04-15T13:48:52.616Z,10.72
2023-04-15T13:49:57.157Z,10.83
2023-04-15T13:51:00.077Z,10.86
2023-04-15T13:52:03.223Z,10.87
2023-04-15T13:53:06.566Z,10.84
2023-04-15T13:54:10.062Z,10.82
2023-04-15T13:55:20.559Z,10.80
2023-04-15T13:56:24.524Z,10.74
2023-04-15T13:57:31.104Z,10.70
2023-04-15T13:58:34.571Z,10.69
2023-04-15T13:59:37.595Z,10.67
2023-04-15T14:00:41.121Z,10.69
2023-04-15T14:01:45.177Z,10.71
2023-04-15T14:02:48.912Z,10.81
2023-04-15T14:03:52.074Z,10.93
2023-04-15T14:04:55.516Z,11.09
2023-04-15T14:05:59.019Z,11.21
2023-04-15T14:07:03.412Z,11.30